sensor_id;sensor_type;location;lat;lon;timestamp;temperature;humidity
7461;DHT22;6757;52.258;12.840;2023-08-06T00:01:33;15.20;99.90
7461;DHT22;6757;52.258;12.840;2023-08-06T00:04:00;15.10;99.90
7461;DHT22;6757;52.258;12.840;2023-08-06T00:06:29;15.20;99.90
7461;DHT22;6757;52.258;12.840;2023-08-06T00:08:56;15.10;99.90
7461;DHT22;6757;52.258;12.840;2023-08-06T00:11:23;15.10;99.90
7461;DHT22;6757;52.258;12.840;2023-08-06T00:13:50;15.50;99.90
7461;DHT22;6757;52.258;12.840;2023-08-06T00:16:17;15.10;99.90
7461;DHT22;6757;52.258;12.840;2023-08-06T00:18:44;15.10;99.90
7461;DHT22;6757;52.258;12.840;2023-08-06T00:21:10;15.10;99.90
7461;DHT22;6757;52.258;12.840;2023-08-06T00:23:39;15.10;99.90
7461;DHT22;6757;52.258;12.840;2023-08-06T00:26:07;15.10;99.90
7461;DHT22;6757;52.258;12.840;2023-08-06T00:28:33;15.10;99.90
7461;DHT22;6757;52.258;12.840;2023-08-06T00:31:00;15.10;99.90
7461;DHT22;6757;52.258;12.840;2023-08-06T00:33:27;15.10;99.90
7461;DHT22;6757;52.258;12.840;2023-08-06T00:35:54;15.10;99.90
7461;DHT22;6757;52.258;12.840;2023-08-06T00:38:21;15.10;99.90
7461;DHT22;6757;52.258;12.840;2023-08-06T00:40:49;15.10;99.90
7461;DHT22;6757;52.258;12.840;2023-08-06T00:43:16;15.10;99.90
7461;DHT22;6757;52.258;12.840;2023-08-06T00:45:43;15.10;99.90
7461;DHT22;6757;52.258;12.840;2023-08-06T00:48:10;15.10;99.90
7461;DHT22;6757;52.258;12.840;2023-08-06T00:50:37;15.10;99.90
7461;DHT22;6757;52.258;12.840;2023-08-06T00:53:04;15.10;99.90
7461;DHT22;6757;52.258;12.840;2023-08-06T00:55:32;15.10;99.90
7461;DHT22;6757;52.258;12.840;2023-08-06T00:58:01;15.00;99.90
7461;DHT22;6757;52.258;12.840;2023-08-06T01:00:28;15.00;99.90
7461;DHT22;6757;52.258;12.840;2023-08-06T01:02:56;15.00;99.90
7461;DHT22;6757;52.258;12.840;2023-08-06T01:05:23;15.00;99.90
7461;DHT22;6757;52.258;12.840;2023-08-06T01:08:02;15.00;99.90
7461;DHT22;6757;52.258;12.840;2023-08-06T01:10:44;15.00;99.90
7461;DHT22;6757;52.258;12.840;2023-08-06T01:13:23;15.00;99.90
7461;DHT22;6757;52.258;12.840;2023-08-06T01:15:55;15.00;99.90
7461;DHT22;6757;52.258;12.840;2023-08-06T01:18:23;15.00;99.90
7461;DHT22;6757;52.258;12.840;2023-08-06T01:20:51;15.00;99.90
7461;DHT22;6757;52.258;12.840;2023-08-06T01:23:19;15.00;99.90
7461;DHT22;6757;52.258;12.840;2023-08-06T01:25:57;15.00;99.90
7461;DHT22;6757;52.258;12.840;2023-08-06T01:28:36;15.00;99.90
7461;DHT22;6757;52.258;12.840;2023-08-06T01:31:13;15.00;99.90
7461;DHT22;6757;52.258;12.840;2023-08-06T01:33:44;15.00;99.90
7461;DHT22;6757;52.258;12.840;2023-08-06T01:36:15;15.00;99.90
7461;DHT22;6757;52.258;12.840;2023-08-06T01:38:43;14.90;99.90
7461;DHT22;6757;52.258;12.840;2023-08-06T01:41:10;15.00;99.90
7461;DHT22;6757;52.258;12.840;2023-08-06T01:43:37;14.90;99.90
7461;DHT22;6757;52.258;12.840;2023-08-06T01:46:04;14.90;99.90
7461;DHT22;6757;52.258;12.840;2023-08-06T01:48:32;14.90;99.90
7461;DHT22;6757;52.258;12.840;2023-08-06T01:50:59;14.90;99.90
7461;DHT22;6757;52.258;12.840;2023-08-06T01:53:27;14.90;99.90
7461;DHT22;6757;52.258;12.840;2023-08-06T01:55:54;14.90;99.90
7461;DHT22;6757;52.258;12.840;2023-08-06T01:58:21;14.90;99.90
7461;DHT22;6757;52.258;12.840;2023-08-06T02:00:48;14.90;99.90
7461;DHT22;6757;52.258;12.840;2023-08-06T02:03:15;14.90;99.90
7461;DHT22;6757;52.258;12.840;2023-08-06T02:05:42;15.00;99.90
7461;DHT22;6757;52.258;12.840;2023-08-06T02:08:09;14.90;99.90
7461;DHT22;6757;52.258;12.840;2023-08-06T02:10:37;14.90;99.90
7461;DHT22;6757;52.258;12.840;2023-08-06T02:13:04;14.90;99.90
7461;DHT22;6757;52.258;12.840;2023-08-06T02:15:31;14.90;99.90
7461;DHT22;6757;52.258;12.840;2023-08-06T02:17:58;14.90;99.90
7461;DHT22;6757;52.258;12.840;2023-08-06T02:20:25;14.90;99.90
7461;DHT22;6757;52.258;12.840;2023-08-06T02:22:52;14.90;99.90
7461;DHT22;6757;52.258;12.840;2023-08-06T02:25:19;15.00;99.90
7461;DHT22;6757;52.258;12.840;2023-08-06T02:27:47;15.00;99.90
7461;DHT22;6757;52.258;12.840;2023-08-06T02:30:14;15.00;99.90
7461;DHT22;6757;52.258;12.840;2023-08-06T02:32:41;15.00;99.90
7461;DHT22;6757;52.258;12.840;2023-08-06T02:35:08;15.00;99.90
7461;DHT22;6757;52.258;12.840;2023-08-06T02:37:36;15.00;99.90
7461;DHT22;6757;52.258;12.840;2023-08-06T02:40:03;15.00;99.90
7461;DHT22;6757;52.258;12.840;2023-08-06T02:42:31;15.00;99.90
7461;DHT22;6757;52.258;12.840;2023-08-06T02:44:59;15.00;99.90
7461;DHT22;6757;52.258;12.840;2023-08-06T02:47:26;15.00;99.90
7461;DHT22;6757;52.258;12.840;2023-08-06T02:49:53;15.00;99.90
7461;DHT22;6757;52.258;12.840;2023-08-06T02:52:20;15.00;99.90
7461;DHT22;6757;52.258;12.840;2023-08-06T02:54:47;15.00;99.90
7461;DHT22;6757;52.258;12.840;2023-08-06T02:57:14;15.00;99.90
7461;DHT22;6757;52.258;12.840;2023-08-06T02:59:41;15.00;99.90
7461;DHT22;6757;52.258;12.840;2023-08-06T03:02:09;14.90;99.90
7461;DHT22;6757;52.258;12.840;2023-08-06T03:04:36;14.90;99.90
7461;DHT22;6757;52.258;12.840;2023-08-06T03:07:03;14.90;99.90
7461;DHT22;6757;52.258;12.840;2023-08-06T03:09:30;14.90;99.90
7461;DHT22;6757;52.258;12.840;2023-08-06T03:11:57;14.90;99.90
7461;DHT22;6757;52.258;12.840;2023-08-06T03:14:24;14.90;99.90
7461;DHT22;6757;52.258;12.840;2023-08-06T03:16:51;15.00;99.90
7461;DHT22;6757;52.258;12.840;2023-08-06T03:19:19;14.90;99.90
7461;DHT22;6757;52.258;12.840;2023-08-06T03:21:46;14.90;99.90
7461;DHT22;6757;52.258;12.840;2023-08-06T03:24:13;14.90;99.90
7461;DHT22;6757;52.258;12.840;2023-08-06T03:26:40;14.90;99.90
7461;DHT22;6757;52.258;12.840;2023-08-06T03:29:07;14.90;99.90
7461;DHT22;6757;52.258;12.840;2023-08-06T03:31:34;14.90;99.90
7461;DHT22;6757;52.258;12.840;2023-08-06T03:34:01;14.90;99.90
7461;DHT22;6757;52.258;12.840;2023-08-06T03:36:29;14.90;99.90
7461;DHT22;6757;52.258;12.840;2023-08-06T03:38:56;14.90;99.90
7461;DHT22;6757;52.258;12.840;2023-08-06T03:41:23;14.90;99.90
7461;DHT22;6757;52.258;12.840;2023-08-06T03:43:50;14.90;99.90
7461;DHT22;6757;52.258;12.840;2023-08-06T03:46:17;14.90;99.90
7461;DHT22;6757;52.258;12.840;2023-08-06T03:48:44;14.90;99.90
7461;DHT22;6757;52.258;12.840;2023-08-06T03:51:11;14.90;99.90
7461;DHT22;6757;52.258;12.840;2023-08-06T03:53:39;14.90;99.90
7461;DHT22;6757;52.258;12.840;2023-08-06T03:56:06;14.90;99.90
7461;DHT22;6757;52.258;12.840;2023-08-06T03:58:33;14.90;99.90
7461;DHT22;6757;52.258;12.840;2023-08-06T04:01:00;14.90;99.90
7461;DHT22;6757;52.258;12.840;2023-08-06T04:03:28;15.00;99.90
7461;DHT22;6757;52.258;12.840;2023-08-06T04:05:55;14.90;99.90
7461;DHT22;6757;52.258;12.840;2023-08-06T04:08:22;14.90;99.90
7461;DHT22;6757;52.258;12.840;2023-08-06T04:10:51;14.90;99.90
7461;DHT22;6757;52.258;12.840;2023-08-06T04:13:19;14.90;99.90
7461;DHT22;6757;52.258;12.840;2023-08-06T04:15:46;14.90;99.90
7461;DHT22;6757;52.258;12.840;2023-08-06T04:18:14;14.90;99.90
7461;DHT22;6757;52.258;12.840;2023-08-06T04:20:43;14.90;99.90
7461;DHT22;6757;52.258;12.840;2023-08-06T04:23:11;14.90;99.90
7461;DHT22;6757;52.258;12.840;2023-08-06T04:25:38;14.90;99.90
7461;DHT22;6757;52.258;12.840;2023-08-06T04:28:06;14.90;99.90
7461;DHT22;6757;52.258;12.840;2023-08-06T04:30:34;14.90;99.90
7461;DHT22;6757;52.258;12.840;2023-08-06T04:33:01;15.20;99.90
7461;DHT22;6757;52.258;12.840;2023-08-06T04:35:28;15.00;99.90
7461;DHT22;6757;52.258;12.840;2023-08-06T04:37:54;15.00;99.90
7461;DHT22;6757;52.258;12.840;2023-08-06T04:40:21;14.90;99.90
7461;DHT22;6757;52.258;12.840;2023-08-06T04:42:48;15.00;99.90
7461;DHT22;6757;52.258;12.840;2023-08-06T04:45:17;15.00;99.90
7461;DHT22;6757;52.258;12.840;2023-08-06T04:47:43;15.00;99.90
7461;DHT22;6757;52.258;12.840;2023-08-06T04:50:10;15.10;99.90
7461;DHT22;6757;52.258;12.840;2023-08-06T04:52:38;15.10;99.90
7461;DHT22;6757;52.258;12.840;2023-08-06T04:55:05;15.10;99.90
7461;DHT22;6757;52.258;12.840;2023-08-06T04:57:32;15.10;99.90
7461;DHT22;6757;52.258;12.840;2023-08-06T04:59:59;15.20;99.90
7461;DHT22;6757;52.258;12.840;2023-08-06T05:02:27;15.20;99.90
7461;DHT22;6757;52.258;12.840;2023-08-06T05:04:54;15.20;99.90
7461;DHT22;6757;52.258;12.840;2023-08-06T05:07:21;15.20;99.90
7461;DHT22;6757;52.258;12.840;2023-08-06T05:09:48;15.30;99.90
7461;DHT22;6757;52.258;12.840;2023-08-06T05:12:15;15.40;99.90
7461;DHT22;6757;52.258;12.840;2023-08-06T05:14:43;15.40;99.90
7461;DHT22;6757;52.258;12.840;2023-08-06T05:17:10;15.40;99.90
7461;DHT22;6757;52.258;12.840;2023-08-06T05:19:38;15.40;99.90
7461;DHT22;6757;52.258;12.840;2023-08-06T05:22:05;15.40;99.90
7461;DHT22;6757;52.258;12.840;2023-08-06T05:24:32;15.50;99.90
7461;DHT22;6757;52.258;12.840;2023-08-06T05:26:59;15.50;99.90
7461;DHT22;6757;52.258;12.840;2023-08-06T05:29:26;15.50;99.90
7461;DHT22;6757;52.258;12.840;2023-08-06T05:31:53;15.60;99.90
7461;DHT22;6757;52.258;12.840;2023-08-06T05:34:20;15.60;99.90
7461;DHT22;6757;52.258;12.840;2023-08-06T05:36:48;15.60;99.90
7461;DHT22;6757;52.258;12.840;2023-08-06T05:39:15;15.70;99.90
7461;DHT22;6757;52.258;12.840;2023-08-06T05:41:42;15.70;99.90
7461;DHT22;6757;52.258;12.840;2023-08-06T05:44:09;15.70;99.90
7461;DHT22;6757;52.258;12.840;2023-08-06T05:46:36;15.80;99.90
7461;DHT22;6757;52.258;12.840;2023-08-06T05:49:03;15.70;99.90
7461;DHT22;6757;52.258;12.840;2023-08-06T05:51:30;15.80;99.90
7461;DHT22;6757;52.258;12.840;2023-08-06T05:53:59;15.90;99.90
7461;DHT22;6757;52.258;12.840;2023-08-06T05:56:25;15.90;99.90
7461;DHT22;6757;52.258;12.840;2023-08-06T05:58:52;15.90;99.90
7461;DHT22;6757;52.258;12.840;2023-08-06T06:01:19;15.90;99.90
7461;DHT22;6757;52.258;12.840;2023-08-06T06:03:46;16.00;99.90
7461;DHT22;6757;52.258;12.840;2023-08-06T06:06:13;16.00;99.90
7461;DHT22;6757;52.258;12.840;2023-08-06T06:08:40;16.10;99.90
7461;DHT22;6757;52.258;12.840;2023-08-06T06:11:08;16.10;99.90
7461;DHT22;6757;52.258;12.840;2023-08-06T06:13:35;16.20;99.90
7461;DHT22;6757;52.258;12.840;2023-08-06T06:16:02;16.20;99.90
7461;DHT22;6757;52.258;12.840;2023-08-06T06:18:30;16.30;99.90
7461;DHT22;6757;52.258;12.840;2023-08-06T06:20:57;16.30;99.90
7461;DHT22;6757;52.258;12.840;2023-08-06T06:23:24;16.40;99.90
7461;DHT22;6757;52.258;12.840;2023-08-06T06:25:51;16.40;99.90
7461;DHT22;6757;52.258;12.840;2023-08-06T06:28:19;16.50;99.90
7461;DHT22;6757;52.258;12.840;2023-08-06T06:30:47;16.60;99.90
7461;DHT22;6757;52.258;12.840;2023-08-06T06:33:14;16.60;99.90
7461;DHT22;6757;52.258;12.840;2023-08-06T06:35:41;16.60;99.90
7461;DHT22;6757;52.258;12.840;2023-08-06T06:38:08;16.70;99.90
7461;DHT22;6757;52.258;12.840;2023-08-06T06:40:35;16.80;99.90
7461;DHT22;6757;52.258;12.840;2023-08-06T06:43:03;16.70;99.90
7461;DHT22;6757;52.258;12.840;2023-08-06T06:45:31;16.80;99.90
7461;DHT22;6757;52.258;12.840;2023-08-06T06:47:58;16.80;99.90
7461;DHT22;6757;52.258;12.840;2023-08-06T06:50:25;16.80;99.90
7461;DHT22;6757;52.258;12.840;2023-08-06T06:52:51;16.80;99.90
7461;DHT22;6757;52.258;12.840;2023-08-06T06:55:21;16.80;99.90
7461;DHT22;6757;52.258;12.840;2023-08-06T06:57:54;16.80;99.90
7461;DHT22;6757;52.258;12.840;2023-08-06T07:00:21;16.90;99.90
7461;DHT22;6757;52.258;12.840;2023-08-06T07:02:50;16.80;99.90
7461;DHT22;6757;52.258;12.840;2023-08-06T07:05:18;16.80;99.90
7461;DHT22;6757;52.258;12.840;2023-08-06T07:07:45;16.80;99.90
7461;DHT22;6757;52.258;12.840;2023-08-06T07:10:11;16.90;99.90
7461;DHT22;6757;52.258;12.840;2023-08-06T07:12:38;16.90;99.90
7461;DHT22;6757;52.258;12.840;2023-08-06T07:15:06;16.90;99.90
7461;DHT22;6757;52.258;12.840;2023-08-06T07:17:33;16.90;99.90
7461;DHT22;6757;52.258;12.840;2023-08-06T07:20:01;16.90;99.90
7461;DHT22;6757;52.258;12.840;2023-08-06T07:22:29;16.90;99.90
7461;DHT22;6757;52.258;12.840;2023-08-06T07:24:56;17.00;99.90
7461;DHT22;6757;52.258;12.840;2023-08-06T07:27:24;17.20;99.90
7461;DHT22;6757;52.258;12.840;2023-08-06T07:29:51;17.00;99.90
7461;DHT22;6757;52.258;12.840;2023-08-06T07:32:18;17.00;99.90
7461;DHT22;6757;52.258;12.840;2023-08-06T07:34:45;17.00;99.90
7461;DHT22;6757;52.258;12.840;2023-08-06T07:37:13;17.00;99.90
7461;DHT22;6757;52.258;12.840;2023-08-06T07:39:40;17.10;99.90
7461;DHT22;6757;52.258;12.840;2023-08-06T07:42:08;17.10;99.90
7461;DHT22;6757;52.258;12.840;2023-08-06T07:44:35;17.10;99.90
7461;DHT22;6757;52.258;12.840;2023-08-06T07:47:02;17.20;99.90
7461;DHT22;6757;52.258;12.840;2023-08-06T07:49:29;17.20;99.90
7461;DHT22;6757;52.258;12.840;2023-08-06T07:51:56;17.30;99.90
7461;DHT22;6757;52.258;12.840;2023-08-06T07:54:24;17.30;99.90
7461;DHT22;6757;52.258;12.840;2023-08-06T07:56:51;17.30;99.90
7461;DHT22;6757;52.258;12.840;2023-08-06T07:59:18;17.40;99.90
7461;DHT22;6757;52.258;12.840;2023-08-06T08:01:45;17.40;99.90
7461;DHT22;6757;52.258;12.840;2023-08-06T08:04:12;17.50;99.90
7461;DHT22;6757;52.258;12.840;2023-08-06T08:06:39;17.50;99.90
7461;DHT22;6757;52.258;12.840;2023-08-06T08:09:06;17.60;99.90
7461;DHT22;6757;52.258;12.840;2023-08-06T08:11:34;17.60;99.90
7461;DHT22;6757;52.258;12.840;2023-08-06T08:14:01;17.60;99.90
7461;DHT22;6757;52.258;12.840;2023-08-06T08:16:29;17.70;99.90
7461;DHT22;6757;52.258;12.840;2023-08-06T08:18:55;17.80;99.90
7461;DHT22;6757;52.258;12.840;2023-08-06T08:21:22;17.80;99.90
7461;DHT22;6757;52.258;12.840;2023-08-06T08:23:50;17.80;99.90
7461;DHT22;6757;52.258;12.840;2023-08-06T08:26:17;17.90;99.90
7461;DHT22;6757;52.258;12.840;2023-08-06T08:28:46;18.00;99.90
7461;DHT22;6757;52.258;12.840;2023-08-06T08:31:13;18.00;99.90
7461;DHT22;6757;52.258;12.840;2023-08-06T08:33:41;17.90;99.90
7461;DHT22;6757;52.258;12.840;2023-08-06T08:36:08;18.00;99.90
7461;DHT22;6757;52.258;12.840;2023-08-06T08:38:35;18.20;99.90
7461;DHT22;6757;52.258;12.840;2023-08-06T08:41:02;18.00;99.90
7461;DHT22;6757;52.258;12.840;2023-08-06T08:43:29;17.90;99.90
7461;DHT22;6757;52.258;12.840;2023-08-06T08:46:00;17.90;99.90
7461;DHT22;6757;52.258;12.840;2023-08-06T08:48:28;17.80;99.90
7461;DHT22;6757;52.258;12.840;2023-08-06T08:50:56;17.80;99.90
7461;DHT22;6757;52.258;12.840;2023-08-06T08:53:23;17.80;99.90
7461;DHT22;6757;52.258;12.840;2023-08-06T08:55:52;17.70;99.90
7461;DHT22;6757;52.258;12.840;2023-08-06T08:58:19;17.70;99.90
7461;DHT22;6757;52.258;12.840;2023-08-06T09:00:47;17.60;99.90
7461;DHT22;6757;52.258;12.840;2023-08-06T09:03:16;17.60;99.90
7461;DHT22;6757;52.258;12.840;2023-08-06T09:05:44;17.60;99.90
7461;DHT22;6757;52.258;12.840;2023-08-06T09:08:17;17.60;99.90
7461;DHT22;6757;52.258;12.840;2023-08-06T09:10:46;17.60;99.90
7461;DHT22;6757;52.258;12.840;2023-08-06T09:13:15;17.50;99.90
7461;DHT22;6757;52.258;12.840;2023-08-06T09:15:42;17.60;99.90
7461;DHT22;6757;52.258;12.840;2023-08-06T09:18:10;17.70;99.90
7461;DHT22;6757;52.258;12.840;2023-08-06T09:20:39;17.60;99.90
7461;DHT22;6757;52.258;12.840;2023-08-06T09:23:10;17.60;99.90
7461;DHT22;6757;52.258;12.840;2023-08-06T09:25:38;17.60;99.90
7461;DHT22;6757;52.258;12.840;2023-08-06T09:28:06;17.60;99.90
7461;DHT22;6757;52.258;12.840;2023-08-06T09:30:35;17.60;99.90
7461;DHT22;6757;52.258;12.840;2023-08-06T09:33:03;17.60;99.90
7461;DHT22;6757;52.258;12.840;2023-08-06T09:35:31;17.60;99.90
7461;DHT22;6757;52.258;12.840;2023-08-06T09:38:07;17.70;99.90
7461;DHT22;6757;52.258;12.840;2023-08-06T09:40:35;17.70;99.90
7461;DHT22;6757;52.258;12.840;2023-08-06T09:43:03;17.70;99.90
7461;DHT22;6757;52.258;12.840;2023-08-06T09:45:32;17.80;99.90
7461;DHT22;6757;52.258;12.840;2023-08-06T09:48:02;17.90;99.90
7461;DHT22;6757;52.258;12.840;2023-08-06T09:50:31;17.90;99.90
7461;DHT22;6757;52.258;12.840;2023-08-06T09:53:00;17.90;99.90
7461;DHT22;6757;52.258;12.840;2023-08-06T09:55:28;18.00;99.90
7461;DHT22;6757;52.258;12.840;2023-08-06T09:57:56;18.10;99.90
7461;DHT22;6757;52.258;12.840;2023-08-06T10:00:23;18.20;99.90
7461;DHT22;6757;52.258;12.840;2023-08-06T10:02:50;18.30;99.90
7461;DHT22;6757;52.258;12.840;2023-08-06T10:05:21;18.30;99.90
7461;DHT22;6757;52.258;12.840;2023-08-06T10:07:49;18.40;99.90
7461;DHT22;6757;52.258;12.840;2023-08-06T10:10:17;18.40;99.90
7461;DHT22;6757;52.258;12.840;2023-08-06T10:12:49;18.50;99.90
7461;DHT22;6757;52.258;12.840;2023-08-06T10:15:19;18.60;99.90
7461;DHT22;6757;52.258;12.840;2023-08-06T10:17:50;18.60;99.90
7461;DHT22;6757;52.258;12.840;2023-08-06T10:20:19;18.80;99.90
7461;DHT22;6757;52.258;12.840;2023-08-06T10:23:00;18.80;99.90
7461;DHT22;6757;52.258;12.840;2023-08-06T10:25:31;18.90;99.90
7461;DHT22;6757;52.258;12.840;2023-08-06T10:28:01;19.00;99.90
7461;DHT22;6757;52.258;12.840;2023-08-06T10:33:57;19.10;99.90
7461;DHT22;6757;52.258;12.840;2023-08-06T10:36:26;19.00;99.90
7461;DHT22;6757;52.258;12.840;2023-08-06T10:38:57;19.10;99.90
7461;DHT22;6757;52.258;12.840;2023-08-06T10:41:28;19.10;99.90
7461;DHT22;6757;52.258;12.840;2023-08-06T10:44:06;19.10;99.90
7461;DHT22;6757;52.258;12.840;2023-08-06T10:46:34;19.10;99.90
7461;DHT22;6757;52.258;12.840;2023-08-06T10:49:02;19.10;99.90
7461;DHT22;6757;52.258;12.840;2023-08-06T10:51:30;19.10;99.90
7461;DHT22;6757;52.258;12.840;2023-08-06T10:53:57;19.20;99.90
7461;DHT22;6757;52.258;12.840;2023-08-06T10:56:25;19.20;99.90
7461;DHT22;6757;52.258;12.840;2023-08-06T11:02:10;19.10;99.90
7461;DHT22;6757;52.258;12.840;2023-08-06T11:04:38;19.30;99.90
7461;DHT22;6757;52.258;12.840;2023-08-06T11:07:07;19.30;99.90
7461;DHT22;6757;52.258;12.840;2023-08-06T11:09:34;19.30;99.90
7461;DHT22;6757;52.258;12.840;2023-08-06T11:12:01;19.30;99.90
7461;DHT22;6757;52.258;12.840;2023-08-06T11:14:30;19.30;99.90
7461;DHT22;6757;52.258;12.840;2023-08-06T11:16:58;19.30;99.90
7461;DHT22;6757;52.258;12.840;2023-08-06T11:19:24;19.40;99.90
7461;DHT22;6757;52.258;12.840;2023-08-06T11:21:51;19.40;99.90
7461;DHT22;6757;52.258;12.840;2023-08-06T11:24:18;19.50;99.90
7461;DHT22;6757;52.258;12.840;2023-08-06T11:26:45;19.50;99.90
7461;DHT22;6757;52.258;12.840;2023-08-06T11:29:15;19.50;99.90
7461;DHT22;6757;52.258;12.840;2023-08-06T11:31:43;19.60;99.90
7461;DHT22;6757;52.258;12.840;2023-08-06T11:34:11;19.60;99.90
7461;DHT22;6757;52.258;12.840;2023-08-06T11:36:40;19.60;99.90
7461;DHT22;6757;52.258;12.840;2023-08-06T11:39:09;19.70;99.90
7461;DHT22;6757;52.258;12.840;2023-08-06T11:41:36;19.70;99.90
7461;DHT22;6757;52.258;12.840;2023-08-06T11:44:05;19.80;99.90
7461;DHT22;6757;52.258;12.840;2023-08-06T11:46:50;19.80;99.90
7461;DHT22;6757;52.258;12.840;2023-08-06T11:49:19;19.90;99.90
7461;DHT22;6757;52.258;12.840;2023-08-06T11:51:47;19.90;99.90
7461;DHT22;6757;52.258;12.840;2023-08-06T11:54:14;19.90;99.90
7461;DHT22;6757;52.258;12.840;2023-08-06T11:56:42;20.00;99.90
7461;DHT22;6757;52.258;12.840;2023-08-06T11:59:09;20.00;99.90
7461;DHT22;6757;52.258;12.840;2023-08-06T12:01:36;20.00;99.90
7461;DHT22;6757;52.258;12.840;2023-08-06T12:04:04;20.00;99.90
7461;DHT22;6757;52.258;12.840;2023-08-06T12:06:41;20.10;99.90
7461;DHT22;6757;52.258;12.840;2023-08-06T12:09:09;20.10;99.90
7461;DHT22;6757;52.258;12.840;2023-08-06T12:11:36;20.20;99.90
7461;DHT22;6757;52.258;12.840;2023-08-06T12:14:03;20.20;99.90
7461;DHT22;6757;52.258;12.840;2023-08-06T12:16:30;20.30;99.90
7461;DHT22;6757;52.258;12.840;2023-08-06T12:18:57;20.30;99.90
7461;DHT22;6757;52.258;12.840;2023-08-06T12:21:24;20.30;99.90
7461;DHT22;6757;52.258;12.840;2023-08-06T12:23:52;20.30;99.90
7461;DHT22;6757;52.258;12.840;2023-08-06T12:26:19;20.30;99.90
7461;DHT22;6757;52.258;12.840;2023-08-06T12:28:46;20.30;99.90
7461;DHT22;6757;52.258;12.840;2023-08-06T12:31:15;20.30;99.90
7461;DHT22;6757;52.258;12.840;2023-08-06T12:33:41;20.30;99.90
7461;DHT22;6757;52.258;12.840;2023-08-06T12:36:08;20.30;99.90
7461;DHT22;6757;52.258;12.840;2023-08-06T12:38:35;20.40;99.90
7461;DHT22;6757;52.258;12.840;2023-08-06T12:41:03;20.40;99.90
7461;DHT22;6757;52.258;12.840;2023-08-06T12:43:30;20.40;99.90
7461;DHT22;6757;52.258;12.840;2023-08-06T12:45:57;20.40;99.90
7461;DHT22;6757;52.258;12.840;2023-08-06T12:48:24;20.40;99.90
7461;DHT22;6757;52.258;12.840;2023-08-06T12:50:51;20.40;99.90
7461;DHT22;6757;52.258;12.840;2023-08-06T12:53:18;20.40;99.90
7461;DHT22;6757;52.258;12.840;2023-08-06T12:55:46;20.40;99.90
7461;DHT22;6757;52.258;12.840;2023-08-06T12:58:14;20.40;99.90
7461;DHT22;6757;52.258;12.840;2023-08-06T13:00:41;20.20;99.90
7461;DHT22;6757;52.258;12.840;2023-08-06T13:03:08;20.20;99.90
7461;DHT22;6757;52.258;12.840;2023-08-06T13:05:35;20.20;99.90
7461;DHT22;6757;52.258;12.840;2023-08-06T13:08:03;20.20;99.90
7461;DHT22;6757;52.258;12.840;2023-08-06T13:10:30;20.20;99.90
7461;DHT22;6757;52.258;12.840;2023-08-06T13:12:57;20.10;99.90
7461;DHT22;6757;52.258;12.840;2023-08-06T13:15:25;20.00;99.90
7461;DHT22;6757;52.258;12.840;2023-08-06T13:17:52;19.90;99.90
7461;DHT22;6757;52.258;12.840;2023-08-06T13:20:19;19.60;99.90
7461;DHT22;6757;52.258;12.840;2023-08-06T13:22:46;19.00;99.90
7461;DHT22;6757;52.258;12.840;2023-08-06T13:25:15;18.30;99.90
7461;DHT22;6757;52.258;12.840;2023-08-06T13:27:42;17.70;99.90
7461;DHT22;6757;52.258;12.840;2023-08-06T13:30:11;17.20;99.90
7461;DHT22;6757;52.258;12.840;2023-08-06T13:32:40;16.90;99.90
7461;DHT22;6757;52.258;12.840;2023-08-06T13:35:07;16.70;99.90
7461;DHT22;6757;52.258;12.840;2023-08-06T13:37:34;16.50;99.90
7461;DHT22;6757;52.258;12.840;2023-08-06T13:40:00;16.40;99.90
7461;DHT22;6757;52.258;12.840;2023-08-06T13:42:28;16.30;99.90
7461;DHT22;6757;52.258;12.840;2023-08-06T13:44:55;16.10;99.90
7461;DHT22;6757;52.258;12.840;2023-08-06T13:47:27;16.10;99.90
7461;DHT22;6757;52.258;12.840;2023-08-06T13:49:56;16.00;99.90
7461;DHT22;6757;52.258;12.840;2023-08-06T13:52:22;15.90;99.90
7461;DHT22;6757;52.258;12.840;2023-08-06T13:54:52;15.90;99.90
7461;DHT22;6757;52.258;12.840;2023-08-06T13:57:19;15.90;99.90
7461;DHT22;6757;52.258;12.840;2023-08-06T13:59:46;15.90;99.90
7461;DHT22;6757;52.258;12.840;2023-08-06T14:02:12;15.90;99.90
7461;DHT22;6757;52.258;12.840;2023-08-06T14:04:39;15.90;99.90
7461;DHT22;6757;52.258;12.840;2023-08-06T14:07:08;15.90;99.90
7461;DHT22;6757;52.258;12.840;2023-08-06T14:09:35;16.00;99.90
7461;DHT22;6757;52.258;12.840;2023-08-06T14:12:02;16.00;99.90
7461;DHT22;6757;52.258;12.840;2023-08-06T14:14:29;16.10;99.90
7461;DHT22;6757;52.258;12.840;2023-08-06T14:16:56;16.10;99.90
7461;DHT22;6757;52.258;12.840;2023-08-06T14:19:23;16.20;99.90
7461;DHT22;6757;52.258;12.840;2023-08-06T14:21:50;16.20;99.90
7461;DHT22;6757;52.258;12.840;2023-08-06T14:24:19;16.20;99.90
7461;DHT22;6757;52.258;12.840;2023-08-06T14:26:46;16.30;99.90
7461;DHT22;6757;52.258;12.840;2023-08-06T14:29:13;16.40;99.90
7461;DHT22;6757;52.258;12.840;2023-08-06T14:31:40;16.40;99.90
7461;DHT22;6757;52.258;12.840;2023-08-06T14:34:07;16.50;99.90
7461;DHT22;6757;52.258;12.840;2023-08-06T14:36:34;16.50;99.90
7461;DHT22;6757;52.258;12.840;2023-08-06T14:39:01;16.50;99.90
7461;DHT22;6757;52.258;12.840;2023-08-06T14:41:29;16.60;99.90
7461;DHT22;6757;52.258;12.840;2023-08-06T14:43:56;16.60;99.90
7461;DHT22;6757;52.258;12.840;2023-08-06T14:46:23;17.10;99.90
7461;DHT22;6757;52.258;12.840;2023-08-06T14:48:49;16.60;99.90
7461;DHT22;6757;52.258;12.840;2023-08-06T14:51:16;16.70;99.90
7461;DHT22;6757;52.258;12.840;2023-08-06T14:53:44;16.70;99.90
7461;DHT22;6757;52.258;12.840;2023-08-06T14:56:11;16.70;99.90
7461;DHT22;6757;52.258;12.840;2023-08-06T14:58:39;16.80;99.90
7461;DHT22;6757;52.258;12.840;2023-08-06T15:01:07;16.90;99.90
7461;DHT22;6757;52.258;12.840;2023-08-06T15:03:34;16.90;99.90
7461;DHT22;6757;52.258;12.840;2023-08-06T15:06:01;16.90;99.90
7461;DHT22;6757;52.258;12.840;2023-08-06T15:08:28;17.00;99.90
7461;DHT22;6757;52.258;12.840;2023-08-06T15:10:55;17.00;99.90
7461;DHT22;6757;52.258;12.840;2023-08-06T15:13:21;17.00;99.90
7461;DHT22;6757;52.258;12.840;2023-08-06T15:15:50;17.00;99.90
7461;DHT22;6757;52.258;12.840;2023-08-06T15:18:17;17.00;99.90
7461;DHT22;6757;52.258;12.840;2023-08-06T15:20:44;17.00;99.90
7461;DHT22;6757;52.258;12.840;2023-08-06T15:23:11;17.00;99.90
7461;DHT22;6757;52.258;12.840;2023-08-06T15:25:38;17.00;99.90
7461;DHT22;6757;52.258;12.840;2023-08-06T15:28:05;17.10;99.90
7461;DHT22;6757;52.258;12.840;2023-08-06T15:30:32;17.10;99.90
7461;DHT22;6757;52.258;12.840;2023-08-06T15:33:01;17.20;99.90
7461;DHT22;6757;52.258;12.840;2023-08-06T15:35:28;17.50;99.90
7461;DHT22;6757;52.258;12.840;2023-08-06T15:37:55;17.20;99.90
7461;DHT22;6757;52.258;12.840;2023-08-06T15:40:22;17.30;99.90
7461;DHT22;6757;52.258;12.840;2023-08-06T15:42:49;17.30;99.90
7461;DHT22;6757;52.258;12.840;2023-08-06T15:45:16;17.40;99.90
7461;DHT22;6757;52.258;12.840;2023-08-06T15:47:43;17.50;99.90
7461;DHT22;6757;52.258;12.840;2023-08-06T15:50:11;17.50;99.90
7461;DHT22;6757;52.258;12.840;2023-08-06T15:52:38;17.60;99.90
7461;DHT22;6757;52.258;12.840;2023-08-06T15:55:06;17.60;99.90